Alvin, South Carolina
Current Conditions -  °F | °C
As of 8:35 PM on Sunday 23 Nov 2014 (Local Time) from KMKS Reporting Station
Thunderstorm Thunderstorm  
Wind Chill: 70°   Ceiling: NA
Heat Index: 70°   Visibility: 5mi
Dew Point: 70°   Wind: 3mph
Humidity: 100%   Direction: 200°SSW
Pressure: 29.84"   Gusts: NA
Location:  33.4606°N, 80.009°W
Report Text: KMKS 240135Z AUTO 20003KT 5SM -TSRA 21/21 A2984 RMK AO2 LTG DSNT ALQS P0009
Loading
Personal Weather Stations






























Interactive Weather Map New forecast layout! Learn more

10-Day Weather Forecast

Advertisements
Track Severe Weather on mobile